Time;durP1;ratioP1;P1;durP2;ratioP2;P2;SDS_P1;SDS_P2;PMS_P1;PMS_P2;Temp;Humidity;BMP_temperature;BMP_pressure;BME280_temperature;BME280_humidity;BME280_pressure;Samples;Min_cycle;Max_cycle;Signal;HPM_P1;HPM_P2
2022/05/13 00:00:42;;;;;;;6.82;3.13;;;;;;;15.56;60.68;101547.03;2109131;28;20456;-72
2022/05/13 00:02:07;;;;;;;5.80;3.42;;;;;;;15.47;60.88;101534.53;2112636;28;20047;-72
2022/05/13 00:03:28;;;;;;;6.10;2.85;;;;;;;15.48;60.95;101538.97;2111976;28;20098;-72
2022/05/13 00:04:51;;;;;;;6.82;2.90;;;;;;;15.51;60.94;101535.44;2106724;28;20044;-72
2022/05/13 00:06:12;;;;;;;6.35;2.80;;;;;;;15.52;60.84;101531.91;2102791;28;20040;-72
2022/05/13 00:07:35;;;;;;;7.53;2.90;;;;;;;15.52;60.88;101538.16;2109148;28;20127;-72
2022/05/13 00:08:58;;;;;;;6.85;2.85;;;;;;;15.50;60.81;101542.53;2105543;28;20060;-72
2022/05/13 00:10:21;;;;;;;6.05;3.22;;;;;;;15.46;60.79;101542.50;2106730;28;20195;-72
2022/05/13 00:11:43;;;;;;;11.20;2.92;;;;;;;15.42;60.85;101540.69;2111230;28;20048;-71
2022/05/13 00:13:04;;;;;;;7.03;2.90;;;;;;;15.38;60.92;101538.88;2112346;28;20124;-72
2022/05/13 00:14:28;;;;;;;6.18;3.28;;;;;;;15.40;60.97;101534.47;2111557;28;20130;-72
2022/05/13 00:15:52;;;;;;;8.43;3.08;;;;;;;15.45;60.92;101532.72;2112053;28;20036;-72
2022/05/13 00:17:16;;;;;;;6.43;3.00;;;;;;;15.46;60.79;101532.75;2111177;28;20058;-71
2022/05/13 00:18:38;;;;;;;7.00;2.40;;;;;;;15.47;60.81;101530.97;2106038;28;20059;-72
2022/05/13 00:20:02;;;;;;;6.63;2.72;;;;;;;15.46;60.71;101537.19;2109413;28;20138;-72
2022/05/13 00:21:25;;;;;;;7.22;2.72;;;;;;;15.43;60.77;101523.84;2110837;28;20042;-72
2022/05/13 00:22:52;;;;;;;6.05;3.17;;;;;;;15.41;60.99;101536.25;2109749;28;20050;-72
2022/05/13 00:24:14;;;;;;;7.30;2.67;;;;;;;15.41;61.03;101522.94;2105197;28;20104;-71
2022/05/13 00:25:36;;;;;;;5.57;2.78;;;;;;;15.39;61.09;101525.59;2103823;28;20495;-72
2022/05/13 00:26:58;;;;;;;;;;;;;;;15.38;60.97;101534.44;2106329;28;20036;-72
2022/05/13 00:28:21;;;;;;;6.55;2.92;;;;;;;15.34;60.93;101530.00;2110775;28;19969;-72
2022/05/13 00:29:42;;;;;;;5.65;2.90;;;;;;;15.33;60.99;101537.94;2112215;28;20432;-72
2022/05/13 00:31:06;;;;;;;7.22;3.08;;;;;;;15.28;61.05;101529.94;2110136;28;20571;-72
2022/05/13 00:32:29;;;;;;;5.10;2.60;;;;;;;15.26;61.30;101525.47;2106084;28;20036;-72
2022/05/13 00:33:52;;;;;;;8.60;3.10;;;;;;;15.25;61.29;101511.28;2104861;28;20097;-72
2022/05/13 00:35:13;;;;;;;6.45;2.83;;;;;;;15.26;61.17;101523.72;2101910;28;20046;-71
2022/05/13 00:36:35;;;;;;;9.05;2.90;;;;;;;15.23;61.25;101525.47;2107817;28;20106;-72
2022/05/13 00:37:57;;;;;;;6.32;2.47;;;;;;;15.16;61.26;101536.00;2112180;28;20051;-72
2022/05/13 00:39:20;;;;;;;8.13;3.20;;;;;;;15.10;61.45;101530.63;2098934;28;20048;-71
2022/05/13 00:40:42;;;;;;;7.90;3.08;;;;;;;15.10;61.55;101541.28;2095497;28;20067;-71
2022/05/13 00:42:10;;;;;;;7.30;3.03;;;;;;;15.15;61.54;101538.69;2101383;28;20110;-72
2022/05/13 00:43:44;;;;;;;6.75;3.25;;;;;;;15.21;61.57;101543.16;2102788;28;20060;-72
2022/05/13 00:45:08;;;;;;;7.50;3.17;;;;;;;15.25;61.36;101535.22;2110785;28;20070;-71
2022/05/13 00:46:34;;;;;;;5.57;2.53;;;;;;;15.27;61.30;101536.13;2102278;28;20044;-72
2022/05/13 00:47:55;;;;;;;7.63;3.10;;;;;;;15.28;61.29;101537.03;2107376;28;20499;-72
2022/05/13 00:49:18;;;;;;;4.55;2.53;;;;;;;15.27;61.19;101537.91;2110034;28;20097;-72
2022/05/13 00:50:41;;;;;;;8.23;2.85;;;;;;;15.25;61.20;101529.91;2108828;28;20403;-72
2022/05/13 00:52:06;;;;;;;6.35;2.22;;;;;;;15.24;60.85;101530.78;2103050;28;20055;-72
2022/05/13 00:53:29;;;;;;;7.15;2.63;;;;;;;15.26;60.83;101530.78;2094841;28;20049;-73
2022/05/13 00:54:50;;;;;;;4.57;2.22;;;;;;;15.27;60.48;101525.50;2108048;28;20514;-72
2022/05/13 00:56:13;;;;;;;7.03;2.72;;;;;;;15.29;60.30;101525.50;2108032;28;20044;-71
2022/05/13 00:57:35;;;;;;;6.70;2.70;;;;;;;15.31;60.21;101529.94;2111467;28;20031;-72
2022/05/13 00:59:01;;;;;;;9.13;2.40;;;;;;;15.34;60.17;101521.13;2102779;28;20054;-71
2022/05/13 01:00:23;;;;;;;4.72;2.38;;;;;;;15.35;60.11;101523.78;2116731;27;20039;-72
2022/05/13 01:01:48;;;;;;;6.82;2.85;;;;;;;15.37;60.22;101521.13;2097528;28;20052;-71
2022/05/13 01:03:12;;;;;;;8.25;2.90;;;;;;;15.36;60.26;101527.34;2106167;28;20142;-71
2022/05/13 01:04:37;;;;;;;7.20;2.70;;;;;;;15.35;60.43;101517.59;2102337;28;20040;-72
2022/05/13 01:06:04;;;;;;;6.05;2.75;;;;;;;15.41;60.27;101517.63;2109653;28;20048;-72
2022/05/13 01:07:27;;;;;;;7.15;3.03;;;;;;;15.44;60.31;101525.63;2097715;28;20075;-72
2022/05/13 01:08:50;;;;;;;6.97;2.83;;;;;;;15.48;60.26;101522.13;2100895;28;20148;-73
2022/05/13 01:10:17;;;;;;;7.55;2.80;;;;;;;15.50;60.22;101523.00;2096930;28;20052;-72
2022/05/13 01:11:43;;;;;;;5.45;2.90;;;;;;;15.51;60.31;101523.03;2095907;28;20105;-71
2022/05/13 01:13:08;;;;;;;8.10;2.70;;;;;;;15.53;60.36;101520.41;2102169;28;20063;-72
2022/05/13 01:14:35;;;;;;;5.10;2.90;;;;;;;15.50;60.38;101518.56;2112652;28;20048;-72
2022/05/13 01:15:57;;;;;;;6.90;2.70;;;;;;;15.48;60.49;101523.00;2108565;28;20645;-72
2022/05/13 01:19:06;;;;;;;7.63;2.88;;;;;;;15.46;60.69;101516.78;2113973;28;20039;-72
2022/05/13 01:20:30;;;;;;;7.90;2.92;;;;;;;15.47;60.84;101518.56;2102957;28;20442;-72
2022/05/13 01:21:54;;;;;;;7.10;2.88;;;;;;;15.47;60.82;101512.34;2103739;28;20500;-72
2022/05/13 01:23:19;;;;;;;6.88;2.97;;;;;;;15.47;60.93;101505.25;2103427;28;20047;-72
2022/05/13 01:24:42;;;;;;;5.28;2.30;;;;;;;15.45;61.05;101507.00;2111208;28;20059;-72
2022/05/13 01:26:07;;;;;;;7.65;3.33;;;;;;;15.44;61.21;101505.22;2105796;28;20044;-71
2022/05/13 01:27:28;;;;;;;5.97;2.50;;;;;;;15.42;61.30;101508.78;2103108;28;20101;-72
2022/05/13 01:28:53;;;;;;;7.45;2.88;;;;;;;15.39;61.38;101509.63;2097514;28;20047;-72
2022/05/13 01:30:23;;;;;;;5.90;2.58;;;;;;;15.35;61.40;101509.59;2100909;28;20052;-72
2022/05/13 01:31:46;;;;;;;5.35;2.85;;;;;;;15.27;61.36;101509.53;2112127;27;20059;-72
2022/05/13 01:33:07;;;;;;;6.97;2.70;;;;;;;15.19;61.60;101510.34;2102292;28;20455;-72
2022/05/13 01:34:30;;;;;;;6.32;2.50;;;;;;;15.10;61.83;101508.47;2108703;28;20081;-72
2022/05/13 01:35:55;;;;;;;6.05;2.42;;;;;;;15.05;62.08;101503.13;2105170;28;20056;-72
2022/05/13 01:37:17;;;;;;;6.07;3.05;;;;;;;15.03;62.24;101507.53;2105091;28;20040;-72
2022/05/13 01:38:41;;;;;;;7.07;3.08;;;;;;;15.03;62.27;101509.31;2099459;28;20503;-72
2022/05/13 01:40:04;;;;;;;9.20;3.10;;;;;;;15.03;62.42;101511.97;2108850;28;20056;-72
2022/05/13 01:41:28;;;;;;;8.23;3.13;;;;;;;15.02;62.46;101508.44;2110226;28;20104;-72
2022/05/13 01:42:49;;;;;;;6.00;3.08;;;;;;;15.00;62.44;101507.50;2111810;28;20079;-72
2022/05/13 01:44:12;;;;;;;8.65;3.38;;;;;;;14.99;62.52;101510.16;2109065;28;20043;-72
2022/05/13 01:45:34;;;;;;;6.63;3.45;;;;;;;14.98;62.49;101506.59;2106806;28;20582;-72
2022/05/13 01:46:56;;;;;;;7.13;3.28;;;;;;;14.97;62.46;101501.25;2110532;28;20047;-72
2022/05/13 01:48:19;;;;;;;7.85;3.00;;;;;;;14.95;62.36;101508.34;2105236;28;20044;-71
2022/05/13 01:49:42;;;;;;;8.43;3.20;;;;;;;14.91;62.25;101507.41;2102782;28;20068;-72
2022/05/13 01:51:05;;;;;;;6.57;2.78;;;;;;;14.86;62.25;101502.94;2117137;27;20054;-72
2022/05/13 01:52:29;;;;;;;7.40;2.78;;;;;;;14.82;62.37;101510.00;2110257;28;20078;-72
2022/05/13 01:53:53;;;;;;;7.32;3.20;;;;;;;14.78;62.40;101510.81;2103636;28;20150;-72
2022/05/13 01:55:15;;;;;;;11.15;3.25;;;;;;;14.76;62.40;101501.97;2101546;28;20093;-72
2022/05/13 01:56:38;;;;;;;9.43;2.78;;;;;;;14.71;62.49;101507.22;2105079;28;20044;-71
2022/05/13 01:58:01;;;;;;;5.90;2.65;;;;;;;14.67;62.62;101507.16;2107815;28;20142;-72
2022/05/13 01:59:23;;;;;;;7.65;3.17;;;;;;;14.66;62.66;101508.03;2105506;28;20044;-72
2022/05/13 02:00:48;;;;;;;5.07;2.30;;;;;;;14.66;62.81;101503.63;2102447;28;20052;-72
2022/05/13 02:02:11;;;;;;;5.97;2.60;;;;;;;14.65;62.95;101507.16;2103836;28;20043;-72
2022/05/13 02:03:44;;;;;;;7.07;2.95;;;;;;;14.65;62.98;101504.50;2111393;28;20047;-72
2022/05/13 02:05:08;;;;;;;8.13;3.22;;;;;;;14.64;63.04;101502.69;2109963;28;20746;-72
2022/05/13 02:06:30;;;;;;;7.45;3.90;;;;;;;14.66;63.08;101502.72;2100908;28;20048;-72
2022/05/13 02:07:53;;;;;;;6.63;3.25;;;;;;;14.67;63.13;101502.75;2099531;28;20523;-72
2022/05/13 02:09:16;;;;;;;8.13;3.25;;;;;;;14.68;63.11;101498.31;2102564;28;20055;-71
2022/05/13 02:10:37;;;;;;;10.93;3.15;;;;;;;14.70;63.06;101496.59;2103333;28;20040;-72
2022/05/13 02:12:00;;;;;;;6.63;2.47;;;;;;;14.70;63.20;101496.59;2111549;28;20487;-72
2022/05/13 02:13:23;;;;;;;7.53;3.30;;;;;;;14.67;63.25;101484.16;2111136;28;20044;-72
2022/05/13 02:14:45;;;;;;;7.75;2.92;;;;;;;14.68;63.50;101496.56;2111070;28;20399;-71
2022/05/13 02:16:06;;;;;;;9.52;3.42;;;;;;;14.69;63.48;101494.81;2110602;28;20048;-72
2022/05/13 02:17:29;;;;;;;5.45;2.70;;;;;;;14.68;63.44;101498.31;2111154;28;20047;-72
2022/05/13 02:18:51;;;;;;;7.07;3.28;;;;;;;14.69;63.32;101497.47;2105621;28;20044;-72
2022/05/13 02:20:13;;;;;;;;;;;;;;;14.71;63.24;101503.66;2100789;28;20063;-71
2022/05/13 02:21:36;;;;;;;5.60;3.10;;;;;;;14.73;63.13;101492.19;2107399;28;19920;-71
2022/05/13 02:23:00;;;;;;;6.28;3.20;;;;;;;14.77;63.08;101505.50;2108751;28;20077;-72
2022/05/13 02:24:23;;;;;;;6.63;3.22;;;;;;;14.79;63.20;101507.28;2115741;28;20526;-71
2022/05/13 02:25:45;;;;;;;7.95;3.30;;;;;;;14.84;63.12;101500.25;2107572;28;20504;-72
2022/05/13 02:27:06;;;;;;;9.73;3.25;;;;;;;14.87;63.12;101494.97;2119789;27;20095;-71
2022/05/13 02:28:30;;;;;;;8.05;2.90;;;;;;;14.90;63.07;101502.97;2108489;28;20078;-72
2022/05/13 02:29:53;;;;;;;12.15;3.55;;;;;;;14.92;63.10;101500.34;2111159;28;20136;-72
2022/05/13 02:31:16;;;;;;;7.10;3.03;;;;;;;14.94;63.10;101496.81;2106832;28;20108;-72
2022/05/13 02:32:37;;;;;;;6.20;3.08;;;;;;;14.96;62.97;101488.88;2111376;28;20425;-72
2022/05/13 02:34:00;;;;;;;8.00;2.78;;;;;;;14.96;63.14;101492.41;2109755;28;20106;-71
2022/05/13 02:35:21;;;;;;;6.50;2.85;;;;;;;14.97;62.93;101496.84;2109912;28;20504;-72
2022/05/13 02:36:44;;;;;;;8.55;3.17;;;;;;;14.96;63.11;101495.06;2110014;28;20139;-72
2022/05/13 02:38:07;;;;;;;5.82;2.67;;;;;;;14.95;63.16;101495.94;2111254;28;20178;-72
2022/05/13 02:39:30;;;;;;;7.68;2.78;;;;;;;14.89;63.28;101498.56;2105386;28;20056;-72
2022/05/13 02:42:33;;;;;;;6.47;3.20;;;;;;;14.84;63.60;101488.72;2105364;28;20492;-72
2022/05/13 02:43:56;;;;;;;8.88;3.17;;;;;;;14.87;63.49;101504.72;2102801;28;20043;-72
2022/05/13 02:45:18;;;;;;;5.55;2.55;;;;;;;14.86;63.60;101493.19;2108978;28;20571;-71
2022/05/13 02:46:41;;;;;;;5.78;2.97;;;;;;;14.86;63.58;101500.28;2102303;28;20117;-72
2022/05/13 02:48:03;;;;;;;7.32;3.13;;;;;;;14.85;63.63;101499.38;2109198;28;20515;-72
2022/05/13 02:49:26;;;;;;;6.13;2.80;;;;;;;14.85;63.68;101501.16;2110020;28;20566;-72
2022/05/13 02:50:47;;;;;;;7.93;3.40;;;;;;;14.83;63.64;101503.81;2110577;28;20178;-71
2022/05/13 02:52:11;;;;;;;7.78;2.70;;;;;;;14.82;63.74;101502.03;2110993;28;20044;-72
2022/05/13 02:53:34;;;;;;;6.05;2.95;;;;;;;14.81;63.74;101510.88;2110055;28;20055;-72
2022/05/13 02:54:56;;;;;;;6.22;2.55;;;;;;;14.81;63.61;101505.56;2109880;28;20094;-72
2022/05/13 02:56:19;;;;;;;7.95;2.97;;;;;;;14.83;63.55;101508.22;2102633;28;20078;-71
2022/05/13 02:57:41;;;;;;;7.18;3.05;;;;;;;14.77;63.48;101509.03;2106893;28;20067;-72
2022/05/13 02:59:04;;;;;;;5.32;2.78;;;;;;;14.72;63.55;101503.69;2110475;28;20051;-72
2022/05/13 03:00:25;;;;;;;13.77;3.08;;;;;;;14.71;63.81;101501.00;2103953;28;20046;-72
2022/05/13 03:01:48;;;;;;;7.28;3.80;;;;;;;14.72;63.84;101508.09;2098430;28;20235;-72
2022/05/13 03:03:10;;;;;;;8.57;3.28;;;;;;;14.71;63.74;101503.66;2102471;28;20060;-72
2022/05/13 03:04:33;;;;;;;7.75;3.35;;;;;;;14.70;63.52;101507.22;2103417;28;20071;-72
2022/05/13 03:05:54;;;;;;;6.03;3.17;;;;;;;14.68;63.44;101506.31;2102196;28;20052;-72
2022/05/13 03:07:17;;;;;;;7.82;3.08;;;;;;;14.67;63.40;101504.50;2113932;28;20067;-72
2022/05/13 03:08:41;;;;;;;6.15;2.85;;;;;;;14.65;63.21;101512.47;2110894;28;20084;-72
2022/05/13 03:10:05;;;;;;;7.20;3.00;;;;;;;14.63;63.28;101516.00;2102830;28;20076;-72
2022/05/13 03:11:27;;;;;;;6.03;2.40;;;;;;;14.59;63.42;101514.16;2102594;28;20039;-71
2022/05/13 03:12:48;;;;;;;11.27;4.47;;;;;;;14.57;63.44;101521.25;2102512;28;20520;-72
2022/05/13 03:14:11;;;;;;;9.23;3.28;;;;;;;14.54;63.45;101519.44;2096856;28;20044;-72
2022/05/13 03:15:33;;;;;;;5.45;2.85;;;;;;;14.54;63.57;101519.44;2111408;28;20134;-72
2022/05/13 03:16:55;;;;;;;8.45;3.55;;;;;;;14.55;63.55;101522.97;2106508;28;20609;-72
2022/05/13 03:18:18;;;;;;;8.07;3.45;;;;;;;14.55;63.60;101515.91;2102569;28;20504;-72
2022/05/13 03:19:40;;;;;;;7.30;3.03;;;;;;;14.53;63.63;101520.31;2107679;28;20035;-71
2022/05/13 03:21:02;;;;;;;8.05;3.28;;;;;;;14.49;63.62;101513.19;2112367;28;20131;-72
2022/05/13 03:22:24;;;;;;;11.52;3.25;;;;;;;14.47;63.73;101514.03;2113270;27;20050;-72
2022/05/13 03:23:48;;;;;;;7.20;3.53;;;;;;;14.47;63.67;101519.34;2113320;28;20051;-71
2022/05/13 03:25:09;;;;;;;7.70;3.80;;;;;;;14.47;63.76;101514.91;2112745;28;20143;-71
2022/05/13 03:26:32;;;;;;;8.98;3.47;;;;;;;14.48;63.82;101529.09;2111922;28;20051;-71
2022/05/13 03:27:53;;;;;;;8.18;3.50;;;;;;;14.49;63.89;101529.13;2111152;28;20116;-72
2022/05/13 03:29:15;;;;;;;9.35;2.95;;;;;;;14.51;64.01;101526.47;2115275;28;20082;-71
2022/05/13 03:30:38;;;;;;;8.70;3.40;;;;;;;14.55;64.13;101533.63;2105133;28;20133;-72
2022/05/13 03:31:59;;;;;;;9.23;3.58;;;;;;;14.54;64.16;101527.41;2089483;28;20048;-71
2022/05/13 03:33:22;;;;;;;7.38;3.47;;;;;;;14.59;64.22;101536.31;2105279;28;20043;-72
2022/05/13 03:34:43;;;;;;;9.80;3.70;;;;;;;14.63;64.27;101540.81;2103156;28;20509;-72
2022/05/13 03:36:07;;;;;;;9.02;3.33;;;;;;;14.68;64.35;101538.19;2100894;28;20058;-71
2022/05/13 03:37:30;;;;;;;7.32;3.17;;;;;;;14.73;64.33;101541.78;2104089;28;20122;-72
2022/05/13 03:38:53;;;;;;;7.63;3.50;;;;;;;14.81;64.41;101550.75;2111092;28;20138;-72
2022/05/13 03:40:17;;;;;;;6.68;3.53;;;;;;;14.88;64.22;101541.06;2106038;28;20142;-72
2022/05/13 03:41:39;;;;;;;8.05;3.42;;;;;;;14.93;64.14;101548.22;2104227;28;20094;-72
2022/05/13 03:43:01;;;;;;;6.53;2.88;;;;;;;14.95;63.91;101553.56;2087574;28;20053;-72
2022/05/13 03:44:23;;;;;;;8.32;2.80;;;;;;;14.97;63.77;101554.44;2103697;28;20441;-72
2022/05/13 03:45:46;;;;;;;8.20;3.38;;;;;;;15.02;63.73;101544.75;2102068;28;20044;-72
2022/05/13 03:47:09;;;;;;;9.90;3.95;;;;;;;15.11;63.73;101545.72;2105362;28;20124;-71
2022/05/13 03:48:32;;;;;;;7.43;3.40;;;;;;;15.21;63.50;101544.06;2111446;28;20554;-72
2022/05/13 03:49:54;;;;;;;6.72;3.25;;;;;;;15.28;63.32;101548.56;2112518;28;20044;-72
2022/05/13 03:51:17;;;;;;;7.15;2.88;;;;;;;15.32;63.01;101549.47;2108922;28;20040;-72
2022/05/13 03:52:39;;;;;;;6.43;2.63;;;;;;;15.35;62.60;101547.75;2103883;28;20048;-72
2022/05/13 03:54:03;;;;;;;7.68;3.33;;;;;;;15.37;62.32;101548.63;2104080;28;20074;-72
2022/05/13 03:55:26;;;;;;;10.75;3.30;;;;;;;15.36;62.15;101548.63;2115350;27;20047;-72
2022/05/13 03:56:48;;;;;;;7.82;2.90;;;;;;;15.34;62.15;101550.38;2112348;28;20050;-72
2022/05/13 03:58:11;;;;;;;8.20;3.38;;;;;;;15.29;62.13;101544.13;2110670;28;20067;-72
2022/05/13 03:59:33;;;;;;;11.82;2.53;;;;;;;15.28;62.13;101545.00;2108556;28;21685;-72
2022/05/13 04:00:56;;;;;;;6.80;2.38;;;;;;;15.30;61.95;101549.44;2102135;28;20101;-72
2022/05/13 04:02:17;;;;;;;10.55;3.38;;;;;;;15.34;61.82;101550.38;2108510;28;20455;-72
2022/05/13 04:03:40;;;;;;;9.18;4.13;;;;;;;15.37;61.70;101547.72;2110840;28;20097;-72
2022/05/13 04:10:03;;;;;;;10.02;4.30;;;;;;;16.04;61.49;101562.47;2105997;28;20068;-72
2022/05/13 04:11:26;;;;;;;14.70;3.63;;;;;;;16.26;61.41;101560.81;2103978;28;20159;-72
2022/05/13 04:16:15;;;;;;;8.15;2.92;;;;;;;16.91;60.55;101558.44;2086511;28;20045;-71
2022/05/13 04:17:38;;;;;;;8.88;3.17;;;;;;;17.07;60.14;101559.34;2109374;28;20043;-72
2022/05/13 04:19:00;;;;;;;8.43;3.00;;;;;;;17.20;59.75;101561.13;2112140;28;20086;-72
2022/05/13 04:20:22;;;;;;;8.48;3.33;;;;;;;17.34;59.17;101563.84;2110497;28;20046;-72
2022/05/13 04:21:46;;;;;;;12.05;3.63;;;;;;;17.44;58.76;101558.53;2111383;28;20047;-71
2022/05/13 04:23:07;;;;;;;8.55;3.45;;;;;;;17.52;58.51;101570.06;2106734;28;20507;-72
2022/05/13 04:24:29;;;;;;;11.10;2.60;;;;;;;17.51;58.15;101570.97;2099267;28;20036;-71
2022/05/13 04:25:52;;;;;;;6.85;2.97;;;;;;;17.46;58.06;101574.50;2107753;28;20048;-72
2022/05/13 04:27:15;;;;;;;7.82;2.90;;;;;;;17.39;57.95;101572.75;2109752;28;20495;-72
2022/05/13 04:28:38;;;;;;;11.38;3.05;;;;;;;17.40;57.82;101572.72;2103688;28;20063;-72
2022/05/13 04:30:00;;;;;;;7.13;2.53;;;;;;;17.57;57.69;101571.88;2109033;28;20074;-72
2022/05/13 04:31:24;;;;;;;7.60;2.90;;;;;;;17.77;57.41;101570.09;2102808;28;20083;-72
2022/05/13 04:32:46;;;;;;;9.98;2.70;;;;;;;17.95;56.72;101566.50;2097964;28;20048;-71
2022/05/13 04:34:09;;;;;;;5.35;2.85;;;;;;;18.16;56.20;101566.47;2100975;28;20051;-71
2022/05/13 04:35:31;;;;;;;8.10;3.63;;;;;;;18.41;55.68;101573.53;2107598;28;20048;-72
2022/05/13 04:36:53;;;;;;;8.20;2.20;;;;;;;18.66;55.18;101569.88;2107054;28;20047;-72
2022/05/13 04:38:14;;;;;;;7.93;2.83;;;;;;;18.94;54.57;101569.75;2103801;28;20042;-72
2022/05/13 04:39:37;;;;;;;6.85;2.95;;;;;;;19.18;53.78;101566.91;2111403;28;20048;-72
2022/05/13 04:42:49;;;;;;;5.50;2.50;;;;;;;19.33;53.47;101565.91;2103719;28;20051;-72
2022/05/13 04:42:51;;;;;;;6.50;2.42;;;;;;;19.52;53.08;101562.22;2109679;28;20043;-72
2022/05/13 04:44:15;;;;;;;5.95;2.85;;;;;;;19.70;52.65;101564.72;2105952;28;20048;-72
2022/05/13 04:45:37;;;;;;;5.63;2.78;;;;;;;19.85;52.22;101566.38;2107181;28;20099;-71
2022/05/13 04:47:00;;;;;;;5.45;2.40;;;;;;;20.04;51.58;101559.03;2095388;28;20033;-71
2022/05/13 04:48:22;;;;;;;6.53;2.53;;;;;;;20.26;51.25;101564.16;2100336;28;20377;-72
2022/05/13 04:49:45;;;;;;;6.18;2.88;;;;;;;20.51;50.58;101567.47;2109138;28;20044;-73
2022/05/13 04:51:06;;;;;;;5.60;2.53;;;;;;;20.79;49.91;101565.34;2104566;28;20051;-72
2022/05/13 04:52:29;;;;;;;6.25;2.65;;;;;;;21.06;48.91;101558.69;2107835;28;20537;-72
2022/05/13 04:53:53;;;;;;;7.72;2.72;;;;;;;21.37;48.47;101562.72;2103565;28;20127;-72
2022/05/13 04:55:15;;;;;;;5.70;2.72;;;;;;;21.67;47.55;101550.53;2100783;28;20129;-72
2022/05/13 04:56:39;;;;;;;5.30;2.60;;;;;;;21.99;46.85;101555.38;2112952;27;20055;-72
2022/05/13 04:58:02;;;;;;;8.10;2.47;;;;;;;22.26;45.87;101552.16;2107006;28;20170;-72
2022/05/13 04:59:24;;;;;;;6.15;2.70;;;;;;;22.55;45.18;101553.38;2100415;28;20130;-72
2022/05/13 05:00:48;;;;;;;5.47;2.85;;;;;;;22.83;44.54;101542.94;2103768;28;20047;-73
2022/05/13 05:02:11;;;;;;;10.15;3.13;;;;;;;22.99;44.10;101549.72;2100603;28;20062;-72
2022/05/13 05:03:35;;;;;;;9.43;3.10;;;;;;;23.24;43.68;101550.91;2102900;28;20085;-71
2022/05/13 05:04:57;;;;;;;6.80;2.38;;;;;;;23.55;43.07;101551.09;2105762;28;20089;-71
2022/05/13 05:06:21;;;;;;;4.90;2.25;;;;;;;23.82;42.43;101555.78;2109824;28;20563;-73
2022/05/13 05:07:42;;;;;;;8.95;2.67;;;;;;;24.07;41.54;101558.69;2101678;28;20143;-72
2022/05/13 05:09:05;;;;;;;7.30;2.30;;;;;;;24.33;41.15;101555.31;2116910;27;20491;-73
2022/05/13 05:10:26;;;;;;;4.75;2.20;;;;;;;24.59;40.71;101559.94;2113757;28;20056;-72
2022/05/13 05:11:50;;;;;;;7.38;2.40;;;;;;;24.85;40.08;101556.47;2102729;28;20418;-72
2022/05/13 05:13:17;;;;;;;10.98;3.28;;;;;;;25.13;39.38;101559.22;2106834;28;20561;-72
2022/05/13 05:14:39;;;;;;;8.90;2.47;;;;;;;25.29;39.49;101557.78;2103206;28;20121;-72
2022/05/13 05:16:02;;;;;;;7.07;2.20;;;;;;;25.00;39.53;101554.22;2115573;27;20135;-73
2022/05/13 05:17:25;;;;;;;8.98;2.70;;;;;;;24.46;39.85;101555.84;2111959;28;20047;-72
2022/05/13 05:18:47;;;;;;;7.43;2.60;;;;;;;23.92;40.35;101555.53;2111217;28;20514;-72
2022/05/13 05:20:10;;;;;;;7.10;3.10;;;;;;;23.54;41.16;101546.63;2100906;28;20040;-72
2022/05/13 05:21:33;;;;;;;6.10;2.70;;;;;;;23.49;41.30;101553.94;2098961;28;20097;-72
2022/05/13 05:22:55;;;;;;;10.10;2.90;;;;;;;23.98;40.37;101548.16;2104472;28;20036;-72
2022/05/13 05:24:17;;;;;;;6.10;2.83;;;;;;;24.57;39.45;101551.00;2102872;28;20051;-73
2022/05/13 05:25:40;;;;;;;6.35;2.67;;;;;;;24.97;38.76;101556.09;2106412;28;20076;-73
2022/05/13 05:27:05;;;;;;;6.90;2.78;;;;;;;25.38;38.12;101547.56;2107779;28;20036;-72
2022/05/13 05:28:29;;;;;;;7.45;2.50;;;;;;;25.76;37.48;101553.53;2108154;28;20131;-72
2022/05/13 05:29:51;;;;;;;4.57;2.50;;;;;;;25.63;37.53;101544.94;2099118;28;20890;-73
2022/05/13 05:31:14;;;;;;;6.18;2.40;;;;;;;25.23;37.84;101553.47;2102654;28;20168;-72
2022/05/13 05:32:37;;;;;;;6.63;3.08;;;;;;;24.89;38.59;101542.84;2101480;28;20389;-73
2022/05/13 05:34:00;;;;;;;8.45;2.88;;;;;;;24.62;39.69;101547.22;2105289;28;20043;-74
2022/05/13 05:35:24;;;;;;;7.47;2.65;;;;;;;24.55;40.21;101542.94;2107907;28;20131;-73
2022/05/13 05:36:47;;;;;;;8.70;3.15;;;;;;;24.46;40.53;101536.94;2096458;28;20051;-72
2022/05/13 05:38:08;;;;;;;5.40;2.50;;;;;;;24.31;40.96;101535.56;2104594;28;20047;-72
2022/05/13 05:39:31;;;;;;;10.43;3.05;;;;;;;24.20;41.14;101529.59;2101695;28;20039;-73
2022/05/13 05:40:52;;;;;;;6.78;2.50;;;;;;;24.27;41.15;101536.59;2107817;28;20174;-73
2022/05/13 05:42:16;;;;;;;6.93;2.53;;;;;;;24.27;41.01;101536.59;2111208;28;20042;-74
2022/05/13 05:43:38;;;;;;;6.97;2.70;;;;;;;24.25;41.07;101537.53;2095582;28;20483;-72
2022/05/13 05:45:01;;;;;;;7.53;2.95;;;;;;;24.10;41.02;101528.03;2100429;28;20044;-72
2022/05/13 05:46:23;;;;;;;9.00;2.90;;;;;;;23.93;41.43;101530.31;2107661;28;20411;-72
2022/05/13 05:47:45;;;;;;;5.53;3.00;;;;;;;23.77;41.89;101533.41;2109300;28;20190;-73
2022/05/13 05:49:07;;;;;;;8.38;2.58;;;;;;;23.64;42.15;101529.28;2105499;28;20435;-72
2022/05/13 05:50:30;;;;;;;5.90;2.50;;;;;;;23.46;42.39;101540.50;2100266;28;20701;-73
2022/05/13 05:51:52;;;;;;;6.15;2.95;;;;;;;23.25;42.67;101546.41;2093324;28;20182;-72
2022/05/13 05:53:15;;;;;;;9.80;3.13;;;;;;;22.99;43.27;101544.34;2096859;28;20076;-72
2022/05/13 05:58:19;;;;;;;7.80;2.80;;;;;;;22.44;44.69;101550.91;2105396;28;20050;-72
2022/05/13 05:59:41;;;;;;;5.70;2.97;;;;;;;22.37;45.02;101545.69;2103166;28;20142;-72
2022/05/13 06:01:05;;;;;;;7.45;2.55;;;;;;;22.31;45.02;101551.19;2109676;28;20071;-72
2022/05/13 06:02:28;;;;;;;7.05;2.55;;;;;;;22.24;44.71;101542.34;2111807;28;20051;-72
2022/05/13 06:03:51;;;;;;;4.32;2.50;;;;;;;22.21;44.54;101545.97;2107203;28;20043;-71
2022/05/13 06:05:13;;;;;;;8.27;2.72;;;;;;;22.21;44.76;101540.59;2102790;28;20083;-72
2022/05/13 06:06:36;;;;;;;6.32;3.08;;;;;;;22.27;44.67;101531.50;2093508;28;20033;-72
2022/05/13 06:08:00;;;;;;;6.78;2.78;;;;;;;22.44;44.10;101536.56;2103060;28;20043;-72
2022/05/13 06:09:23;;;;;;;6.18;2.78;;;;;;;22.89;43.71;101540.09;2106884;28;20097;-71
2022/05/13 06:10:45;;;;;;;7.68;2.80;;;;;;;23.67;42.43;101541.81;2112888;28;20046;-73
2022/05/13 06:12:10;;;;;;;9.10;3.10;;;;;;;24.49;40.90;101543.13;2111586;28;20164;-71
2022/05/13 06:13:34;;;;;;;8.15;2.88;;;;;;;25.18;39.94;101543.72;2108642;28;20059;-72
2022/05/13 06:14:57;;;;;;;4.47;2.17;;;;;;;25.71;38.82;101547.38;2102775;28;20048;-73
2022/05/13 06:16:19;;;;;;;6.93;2.90;;;;;;;26.15;37.96;101554.81;2102948;28;20084;-72
2022/05/13 06:17:47;;;;;;;9.13;2.92;;;;;;;26.52;37.02;101556.19;2110503;28;20138;-73
2022/05/13 06:19:09;;;;;;;6.72;3.00;;;;;;;26.78;36.92;101558.78;2110546;28;20036;-72
2022/05/13 06:20:32;;;;;;;7.57;3.20;;;;;;;27.09;36.48;101557.63;2111453;28;20430;-72
2022/05/13 06:21:55;;;;;;;7.82;2.72;;;;;;;27.36;35.68;101548.38;2094198;28;20586;-72
2022/05/13 06:23:17;;;;;;;7.43;3.08;;;;;;;27.54;34.89;101549.44;2086929;28;20074;-72
2022/05/13 06:24:40;;;;;;;5.95;2.67;;;;;;;27.60;34.46;101557.31;2105860;28;20043;-72
2022/05/13 06:26:02;;;;;;;4.68;3.00;;;;;;;27.68;33.58;101553.34;2110834;28;20062;-72
2022/05/13 06:27:24;;;;;;;7.78;2.80;;;;;;;27.80;33.15;101554.66;2105231;28;20036;-73
2022/05/13 06:28:49;;;;;;;8.52;3.47;;;;;;;27.85;33.11;101554.44;2111098;27;20100;-72
2022/05/13 06:30:15;;;;;;;4.53;2.65;;;;;;;27.86;33.00;101554.38;2107898;28;20036;-72
2022/05/13 06:31:38;;;;;;;6.00;2.47;;;;;;;27.95;32.97;101542.25;2109410;28;20047;-72
2022/05/13 06:33:01;;;;;;;5.57;2.50;;;;;;;28.07;32.43;101544.41;2107539;28;20114;-72
2022/05/13 06:34:24;;;;;;;7.45;2.67;;;;;;;28.14;32.46;101554.09;2110941;28;20446;-72
2022/05/13 06:35:46;;;;;;;8.93;3.03;;;;;;;28.25;31.93;101549.03;2102831;28;20052;-73
2022/05/13 06:37:09;;;;;;;5.70;2.60;;;;;;;28.26;31.98;101537.22;2094580;28;20068;-72
2022/05/13 06:38:31;;;;;;;5.35;2.30;;;;;;;28.24;32.13;101547.28;2107930;28;20035;-72
2022/05/13 06:39:54;;;;;;;4.88;2.53;;;;;;;28.31;32.00;101542.44;2115771;28;20055;-73
2022/05/13 06:41:16;;;;;;;10.32;2.88;;;;;;;28.28;32.11;101543.47;2104585;28;20665;-73